sensor_id;sensor_type;location;lat;lon;timestamp;temperature;humidity
73833;SHT30;62179;48.444;-4.464;2023-03-01T08:03:29;3.16;85.90
73833;SHT30;62179;48.444;-4.464;2023-03-01T08:06:54;3.33;85.19
73833;SHT30;62179;48.444;-4.464;2023-03-01T08:09:48;3.58;85.25
73833;SHT30;62179;48.444;-4.464;2023-03-01T08:12:57;3.93;85.54
73833;SHT30;62179;48.444;-4.464;2023-03-01T08:15:41;4.41;84.73
73833;SHT30;62179;48.444;-4.464;2023-03-01T08:28:20;8.97;76.00
73833;SHT30;62179;48.444;-4.464;2023-03-01T08:33:59;9.64;75.67
73833;SHT30;62179;48.444;-4.464;2023-03-01T08:36:59;10.68;72.61
73833;SHT30;62179;48.444;-4.464;2023-03-01T08:39:50;11.74;66.03
73833;SHT30;62179;48.444;-4.464;2023-03-01T08:42:29;12.06;70.21
73833;SHT30;62179;48.444;-4.464;2023-03-01T08:44:57;11.92;67.26
73833;SHT30;62179;48.444;-4.464;2023-03-01T08:47:28;11.72;68.62
73833;SHT30;62179;48.444;-4.464;2023-03-01T08:49:56;11.55;68.94
73833;SHT30;62179;48.444;-4.464;2023-03-01T08:52:37;11.28;68.47
73833;SHT30;62179;48.444;-4.464;2023-03-01T08:55:10;10.90;69.67
73833;SHT30;62179;48.444;-4.464;2023-03-01T08:57:46;10.51;70.24
73833;SHT30;62179;48.444;-4.464;2023-03-01T09:00:31;10.14;69.22
73833;SHT30;62179;48.444;-4.464;2023-03-01T09:03:02;9.83;70.94
73833;SHT30;62179;48.444;-4.464;2023-03-01T09:05:41;9.53;69.90
73833;SHT30;62179;48.444;-4.464;2023-03-01T09:08:06;9.22;68.75
73833;SHT30;62179;48.444;-4.464;2023-03-01T09:10:44;8.94;70.32
73833;SHT30;62179;48.444;-4.464;2023-03-01T09:13:19;8.76;71.53
73833;SHT30;62179;48.444;-4.464;2023-03-01T09:15:58;8.66;71.60
73833;SHT30;62179;48.444;-4.464;2023-03-01T09:18:31;8.54;73.03
73833;SHT30;62179;48.444;-4.464;2023-03-01T09:21:08;8.46;71.45
73833;SHT30;62179;48.444;-4.464;2023-03-01T09:23:43;8.45;73.35
73833;SHT30;62179;48.444;-4.464;2023-03-01T09:26:11;8.40;72.99
73833;SHT30;62179;48.444;-4.464;2023-03-01T09:28:38;8.40;73.75
73833;SHT30;62179;48.444;-4.464;2023-03-01T09:31:06;8.39;71.38
73833;SHT30;62179;48.444;-4.464;2023-03-01T09:38:15;8.47;75.16
73833;SHT30;62179;48.444;-4.464;2023-03-01T10:17:26;7.78;69.43
73833;SHT30;62179;48.444;-4.464;2023-03-01T10:38:26;8.21;61.80
73833;SHT30;62179;48.444;-4.464;2023-03-01T11:03:01;8.87;61.49
73833;SHT30;62179;48.444;-4.464;2023-03-01T11:09:22;8.85;65.69
73833;SHT30;62179;48.444;-4.464;2023-03-01T11:12:17;8.98;67.23
73833;SHT30;62179;48.444;-4.464;2023-03-01T11:22:11;9.07;66.12
73833;SHT30;62179;48.444;-4.464;2023-03-01T11:25:25;9.15;66.04
73833;SHT30;62179;48.444;-4.464;2023-03-01T11:39:05;11.72;61.26
73833;SHT30;62179;48.444;-4.464;2023-03-01T11:44:24;11.28;57.48
73833;SHT30;62179;48.444;-4.464;2023-03-01T11:49:35;11.20;62.62
73833;SHT30;62179;48.444;-4.464;2023-03-01T11:52:31;11.31;61.99
73833;SHT30;62179;48.444;-4.464;2023-03-01T12:08:51;10.99;61.40
